createdAt,value
2018-04-10T00:00:29.826Z,7.40
2018-04-10T00:02:59.817Z,7.30
2018-04-10T00:05:28.817Z,7.30
2018-04-10T00:07:56.853Z,7.30
2018-04-10T00:10:26.781Z,7.20
2018-04-10T00:12:56.741Z,7.20
2018-04-10T00:15:25.709Z,7.20
2018-04-10T00:18:06.933Z,7.10
2018-04-10T00:20:34.960Z,7.20
2018-04-10T00:23:04.204Z,7.20
2018-04-10T00:25:32.232Z,7.10
2018-04-10T00:28:08.496Z,7.10
2018-04-10T00:30:37.494Z,7.10
2018-04-10T00:33:06.472Z,7.00
2018-04-10T00:35:37.645Z,6.90
2018-04-10T00:38:14.056Z,6.90
2018-04-10T00:40:43.068Z,6.90
2018-04-10T00:43:11.064Z,6.80
2018-04-10T00:45:40.856Z,7.00
2018-04-10T00:48:12.424Z,6.90
2018-04-10T00:50:40.440Z,7.00
2018-04-10T00:53:22.336Z,6.90
2018-04-10T00:55:50.349Z,6.90
2018-04-10T00:58:18.392Z,6.90
2018-04-10T01:01:03.534Z,6.90
2018-04-10T01:03:31.564Z,6.90
2018-04-10T01:06:00.548Z,6.80
2018-04-10T01:08:37.007Z,6.70
2018-04-10T01:11:07.945Z,6.70
2018-04-10T01:13:37.986Z,6.60
2018-04-10T01:16:14.508Z,6.60
2018-04-10T01:18:44.479Z,6.50
2018-04-10T01:21:21.080Z,6.50
2018-04-10T01:23:50.843Z,6.50
2018-04-10T01:26:21.995Z,6.50
2018-04-10T01:28:50.980Z,6.50
2018-04-10T01:31:25.974Z,6.50
2018-04-10T01:34:00.091Z,6.40
2018-04-10T01:36:28.127Z,6.40
2018-04-10T01:39:08.648Z,6.30
2018-04-10T01:41:36.667Z,6.20
2018-04-10T01:44:06.611Z,6.20
2018-04-10T01:46:35.696Z,6.20
2018-04-10T01:49:03.700Z,6.20
2018-04-10T01:51:33.739Z,6.20
2018-04-10T01:54:03.535Z,6.10
2018-04-10T01:56:32.312Z,6.10
2018-04-10T01:59:00.367Z,6.00
2018-04-10T02:01:29.415Z,6.10
2018-04-10T02:04:04.547Z,6.10
2018-04-10T02:06:37.848Z,6.30
2018-04-10T02:09:06.800Z,6.30
2018-04-10T02:11:53.515Z,6.30
2018-04-10T02:14:21.544Z,6.20
2018-04-10T02:17:07.116Z,6.10
2018-04-10T02:19:37.108Z,6.10
2018-04-10T02:22:05.136Z,6.20
2018-04-10T02:24:34.124Z,6.20
2018-04-10T02:27:04.140Z,6.30
2018-04-10T02:29:32.193Z,6.40
2018-04-10T02:32:00.200Z,6.50
2018-04-10T02:34:30.212Z,6.40
2018-04-10T02:36:59.189Z,6.30
2018-04-10T02:39:31.172Z,6.20
2018-04-10T02:41:59.200Z,6.20
2018-04-10T02:44:27.217Z,6.10
2018-04-10T02:47:00.712Z,5.90
2018-04-10T02:49:35.312Z,5.90
2018-04-10T02:52:04.351Z,5.80
2018-04-10T02:54:33.300Z,5.80
2018-04-10T02:57:02.336Z,5.80
2018-04-10T02:59:31.316Z,5.80
2018-04-10T03:02:18.448Z,5.80
2018-04-10T03:04:46.532Z,5.80
2018-04-10T03:07:14.592Z,5.70
2018-04-10T03:09:46.217Z,5.50
2018-04-10T03:12:24.492Z,5.40
2018-04-10T03:14:53.524Z,5.40
2018-04-10T03:17:23.300Z,5.50
2018-04-10T03:19:52.300Z,5.50
2018-04-10T03:22:21.317Z,5.40
2018-04-10T03:24:49.340Z,5.40
2018-04-10T03:27:19.276Z,5.50
2018-04-10T03:29:54.745Z,5.40
2018-04-10T03:32:23.705Z,5.40
2018-04-10T03:34:51.731Z,5.50
2018-04-10T03:37:22.540Z,5.40
2018-04-10T03:39:51.308Z,5.40
2018-04-10T03:42:19.345Z,5.40
2018-04-10T03:44:48.420Z,5.40
2018-04-10T03:47:16.436Z,5.40
2018-04-10T03:49:44.444Z,5.30
2018-04-10T03:52:13.244Z,5.20
2018-04-10T03:54:43.220Z,5.20
2018-04-10T03:57:14.312Z,5.10
2018-04-10T03:59:48.076Z,5.00
2018-04-10T04:02:19.808Z,4.80
2018-04-10T04:04:47.840Z,4.80
2018-04-10T04:07:21.826Z,4.70
2018-04-10T04:09:54.503Z,4.80
2018-04-10T04:12:26.653Z,4.80
2018-04-10T04:14:54.648Z,4.80
2018-04-10T04:17:34.636Z,4.80
2018-04-10T04:20:16.588Z,4.80
2018-04-10T04:22:47.720Z,4.80
2018-04-10T04:25:17.729Z,5.00
2018-04-10T04:27:46.732Z,5.00
2018-04-10T04:30:33.152Z,5.00
2018-04-10T04:33:05.472Z,5.00
2018-04-10T04:35:35.748Z,5.00
2018-04-10T04:38:07.068Z,5.00
2018-04-10T04:40:37.116Z,5.00
2018-04-10T04:43:15.472Z,5.10
2018-04-10T04:45:45.523Z,5.10
2018-04-10T04:48:14.314Z,5.20
2018-04-10T04:50:46.259Z,5.30
2018-04-10T04:53:20.048Z,5.30
2018-04-10T04:55:48.103Z,5.30
2018-04-10T04:58:31.187Z,5.40
2018-04-10T05:01:11.871Z,5.30
2018-04-10T05:03:40.619Z,5.40
2018-04-10T05:06:10.396Z,5.50
2018-04-10T05:08:39.408Z,5.40
2018-04-10T05:11:11.060Z,5.50
2018-04-10T05:16:36.079Z,5.60
2018-04-10T05:19:08.783Z,5.60
2018-04-10T05:21:58.479Z,5.80
2018-04-10T05:24:27.436Z,5.80
2018-04-10T05:26:58.135Z,6.20
2018-04-10T05:29:36.739Z,6.20
2018-04-10T05:32:24.759Z,6.40
2018-04-10T05:34:59.919Z,6.50
2018-04-10T05:37:28.947Z,6.70
2018-04-10T05:39:57.911Z,6.90
2018-04-10T05:42:27.947Z,7.10
2018-04-10T05:47:54.103Z,8.00
2018-04-10T05:50:32.579Z,8.00
2018-04-10T05:53:00.615Z,8.20
2018-04-10T05:55:29.558Z,8.40
2018-04-10T05:57:58.547Z,8.60
2018-04-10T06:00:28.583Z,8.80
2018-04-10T06:02:58.594Z,9.10
2018-04-10T06:05:35.134Z,9.40
2018-04-10T06:08:03.170Z,9.70
2018-04-10T06:10:31.193Z,10.00
2018-04-10T06:12:59.238Z,10.40
2018-04-10T06:15:33.734Z,10.60
2018-04-10T06:18:02.699Z,10.80
2018-04-10T06:20:33.435Z,11.20
2018-04-10T06:23:04.171Z,11.50
2018-04-10T06:25:32.971Z,11.80
2018-04-10T06:28:01.931Z,11.80
2018-04-10T06:30:35.547Z,11.90
2018-04-10T06:33:09.448Z,12.30
2018-04-10T06:35:43.031Z,12.30
2018-04-10T06:38:16.790Z,12.50
2018-04-10T06:40:44.832Z,12.90
2018-04-10T06:43:14.660Z,13.30
2018-04-10T06:45:43.605Z,13.30
2018-04-10T06:48:11.628Z,13.40
2018-04-10T06:50:39.679Z,13.60
2018-04-10T06:53:08.471Z,13.90
2018-04-10T06:55:39.183Z,14.20
2018-04-10T06:58:07.208Z,14.20
2018-04-10T07:00:36.236Z,14.40
2018-04-10T07:03:07.595Z,14.60
2018-04-10T07:05:36.565Z,14.90
2018-04-10T07:08:04.588Z,14.80
2018-04-10T07:10:33.552Z,14.90
2018-04-10T07:13:03.364Z,15.80
2018-04-10T07:15:31.387Z,15.80
2018-04-10T07:18:00.411Z,16.20
2018-04-10T07:20:29.410Z,16.40
2018-04-10T07:22:57.441Z,16.60
2018-04-10T07:25:25.494Z,16.90
2018-04-10T07:27:53.511Z,17.30
2018-04-10T07:30:23.519Z,17.60
2018-04-10T07:32:51.575Z,18.10
2018-04-10T07:35:19.592Z,18.70
2018-04-10T07:37:52.247Z,18.90
2018-04-10T07:40:20.260Z,18.90
2018-04-10T07:42:48.275Z,19.00
2018-04-10T07:45:17.211Z,18.90
2018-04-10T07:47:48.715Z,19.10
2018-04-10T07:50:17.658Z,19.10
2018-04-10T07:52:45.683Z,19.20
2018-04-10T07:55:18.882Z,19.80
2018-04-10T07:57:51.670Z,20.00
2018-04-10T08:00:32.166Z,20.30
2018-04-10T08:03:01.842Z,21.50
2018-04-10T08:05:34.615Z,21.50
2018-04-10T08:08:03.631Z,22.10
2018-04-10T08:10:34.351Z,23.40
2018-04-10T08:13:02.367Z,23.40
2018-04-10T08:15:31.286Z,23.60
2018-04-10T08:18:03.495Z,24.40
2018-04-10T08:20:32.271Z,24.70
2018-04-10T08:23:02.682Z,24.70
2018-04-10T08:25:33.726Z,25.50
2018-04-10T08:28:02.630Z,26.10
2018-04-10T08:30:32.245Z,26.30
2018-04-10T08:33:01.050Z,25.40
2018-04-10T08:35:29.067Z,25.40
2018-04-10T08:37:58.510Z,24.40
2018-04-10T08:40:27.317Z,24.50
2018-04-10T08:42:56.269Z,24.50
2018-04-10T08:45:26.249Z,24.50
2018-04-10T08:48:04.040Z,24.00
2018-04-10T08:50:35.269Z,23.20
2018-04-10T08:53:07.188Z,22.80
2018-04-10T08:55:35.193Z,22.50
2018-04-10T08:58:04.122Z,21.60
2018-04-10T09:00:36.348Z,21.20
2018-04-10T09:03:09.272Z,21.30
2018-04-10T09:05:41.145Z,21.40
2018-04-10T09:08:12.881Z,21.60
2018-04-10T09:10:44.485Z,21.80
2018-04-10T09:13:16.320Z,22.10
2018-04-10T09:15:45.153Z,22.10
2018-04-10T09:18:13.161Z,21.90
2018-04-10T09:20:42.147Z,22.30
2018-04-10T09:23:15.880Z,22.70
2018-04-10T09:25:47.506Z,22.80
2018-04-10T09:28:16.440Z,23.20
2018-04-10T09:30:44.464Z,23.80
2018-04-10T09:33:12.472Z,25.30
2018-04-10T09:35:41.264Z,26.30
2018-04-10T09:38:13.398Z,26.40
2018-04-10T09:40:43.416Z,26.40
2018-04-10T09:43:11.421Z,27.10
2018-04-10T09:45:44.713Z,27.60
2018-04-10T09:48:19.366Z,29.00
2018-04-10T09:50:49.331Z,28.90
2018-04-10T09:53:17.347Z,28.40
2018-04-10T09:55:48.947Z,27.60
2018-04-10T09:58:18.863Z,27.30
2018-04-10T10:00:46.883Z,26.90
2018-04-10T10:03:14.919Z,26.10
2018-04-10T10:05:42.930Z,25.30
2018-04-10T10:08:10.941Z,25.50
2018-04-10T10:10:42.495Z,26.10
2018-04-10T10:13:23.023Z,27.60
2018-04-10T10:15:51.955Z,28.80
2018-04-10T10:18:21.043Z,28.20
2018-04-10T10:20:49.042Z,30.00
2018-04-10T10:23:19.754Z,31.50
2018-04-10T10:25:47.765Z,31.50
2018-04-10T10:28:21.322Z,33.30
2018-04-10T10:30:51.387Z,31.60
2018-04-10T10:33:19.398Z,30.30
2018-04-10T10:35:53.106Z,30.00
2018-04-10T10:38:21.118Z,30.40
2018-04-10T10:40:50.045Z,30.30
2018-04-10T10:43:18.061Z,29.90
2018-04-10T10:45:47.832Z,29.90
2018-04-10T10:48:22.253Z,29.80
2018-04-10T10:50:51.238Z,30.60
2018-04-10T10:53:20.149Z,31.10
2018-04-10T10:55:48.186Z,30.70
2018-04-10T10:58:18.314Z,31.10
2018-04-10T11:00:47.331Z,31.10
2018-04-10T11:03:15.334Z,32.80
2018-04-10T11:05:49.926Z,30.30
2018-04-10T11:08:21.665Z,30.30
2018-04-10T11:10:50.665Z,29.40
2018-04-10T11:13:22.213Z,29.30
2018-04-10T11:15:54.809Z,29.80
2018-04-10T11:18:22.814Z,30.30
2018-04-10T11:20:56.129Z,31.70
2018-04-10T11:23:24.133Z,33.60
2018-04-10T11:25:52.150Z,35.30
2018-04-10T11:28:20.166Z,35.70
2018-04-10T11:30:49.155Z,34.50
2018-04-10T11:33:20.863Z,35.50
2018-04-10T11:35:52.883Z,36.50
2018-04-10T11:38:26.712Z,35.20
2018-04-10T11:40:55.672Z,34.40
2018-04-10T11:43:23.692Z,36.00
2018-04-10T11:45:52.620Z,37.30
2018-04-10T11:48:23.320Z,34.10
2018-04-10T11:50:53.288Z,34.10
2018-04-10T11:53:31.860Z,33.60
2018-04-10T11:56:02.955Z,35.40
2018-04-10T11:58:31.927Z,37.10
2018-04-10T12:01:06.327Z,36.90
2018-04-10T12:03:35.232Z,35.50
2018-04-10T12:06:07.923Z,34.40
2018-04-10T12:08:43.567Z,34.60
2018-04-10T12:11:21.231Z,34.60
2018-04-10T12:13:49.231Z,34.30
2018-04-10T12:16:18.127Z,33.50
2018-04-10T12:18:58.954Z,32.00
2018-04-10T12:21:28.907Z,31.50
2018-04-10T12:23:56.922Z,31.30
2018-04-10T12:26:25.720Z,31.40
2018-04-10T12:28:53.742Z,31.40
2018-04-10T12:31:22.643Z,31.20
2018-04-10T12:33:50.682Z,30.70
2018-04-10T12:36:19.621Z,29.50
2018-04-10T12:38:48.390Z,29.90
2018-04-10T12:41:17.374Z,29.90
2018-04-10T12:43:46.386Z,30.50
2018-04-10T12:46:16.394Z,31.20
2018-04-10T12:48:44.410Z,30.90
2018-04-10T12:51:17.382Z,30.80
2018-04-10T12:53:46.342Z,30.90
2018-04-10T12:56:15.253Z,29.80
2018-04-10T12:58:44.033Z,30.70
2018-04-10T13:01:14.729Z,31.50
2018-04-10T13:03:42.733Z,31.50
2018-04-10T13:06:22.621Z,31.20
2018-04-10T13:08:53.397Z,30.40
2018-04-10T13:11:21.457Z,30.40
2018-04-10T13:13:49.635Z,29.10
2018-04-10T13:16:17.621Z,28.30
2018-04-10T13:18:45.585Z,27.70
2018-04-10T13:21:14.511Z,27.70
2018-04-10T13:23:42.524Z,27.70
2018-04-10T13:26:11.537Z,27.00
2018-04-10T13:28:39.589Z,25.80
2018-04-10T13:31:08.368Z,24.70
2018-04-10T13:33:36.392Z,24.70
2018-04-10T13:36:08.009Z,24.70
2018-04-10T13:38:36.024Z,24.50
2018-04-10T13:41:12.092Z,24.40
2018-04-10T13:43:53.548Z,24.60
2018-04-10T13:46:22.361Z,25.00
2018-04-10T13:48:52.349Z,25.00
2018-04-10T13:51:21.137Z,25.80
2018-04-10T13:53:51.837Z,25.40
2018-04-10T13:56:20.757Z,25.30
2018-04-10T13:58:52.709Z,25.00
2018-04-10T14:01:20.741Z,25.00
2018-04-10T14:03:58.660Z,24.90
2018-04-10T14:06:28.669Z,24.90
2018-04-10T14:08:57.665Z,24.70
2018-04-10T14:11:25.685Z,24.60
2018-04-10T14:13:53.701Z,24.20
2018-04-10T14:16:21.941Z,24.00
2018-04-10T14:18:55.508Z,24.40
2018-04-10T14:21:26.193Z,24.70
2018-04-10T14:23:57.873Z,24.70
2018-04-10T14:26:25.921Z,24.60
2018-04-10T14:29:02.085Z,24.20
2018-04-10T14:31:31.108Z,24.10
2018-04-10T14:33:59.130Z,24.00
2018-04-10T14:36:30.506Z,23.90
2018-04-10T14:39:03.150Z,23.70
2018-04-10T14:41:31.166Z,23.30
2018-04-10T14:44:00.098Z,23.30
2018-04-10T14:46:32.538Z,23.00
2018-04-10T14:49:04.284Z,22.80
2018-04-10T14:51:34.306Z,22.60
2018-04-10T14:54:07.693Z,22.50
2018-04-10T14:56:37.653Z,22.20
2018-04-10T14:59:06.562Z,22.00
2018-04-10T15:01:37.949Z,22.00
2018-04-10T15:04:06.933Z,22.00
2018-04-10T15:06:34.953Z,22.10
2018-04-10T15:09:05.987Z,22.00
2018-04-10T15:11:35.808Z,21.40
2018-04-10T15:14:05.376Z,21.30
2018-04-10T15:16:34.276Z,21.20
2018-04-10T15:19:08.944Z,20.90
2018-04-10T15:21:36.968Z,20.60
2018-04-10T15:24:10.761Z,19.80
2018-04-10T15:26:38.777Z,19.70
2018-04-10T15:29:07.701Z,19.60
2018-04-10T15:31:37.044Z,19.60
2018-04-10T15:34:05.828Z,19.50
2018-04-10T15:36:33.840Z,19.40
2018-04-10T15:39:08.460Z,19.30
2018-04-10T15:41:42.160Z,19.30
2018-04-10T15:44:11.184Z,19.40
2018-04-10T15:46:46.696Z,19.40
2018-04-10T15:49:15.500Z,19.10
2018-04-10T15:51:43.507Z,19.00
2018-04-10T15:54:12.431Z,19.00
2018-04-10T15:56:40.451Z,18.90
2018-04-10T15:59:11.617Z,18.80
2018-04-10T16:01:50.011Z,18.60
2018-04-10T16:04:18.032Z,18.50
2018-04-10T16:06:50.591Z,18.30
2018-04-10T16:09:25.076Z,17.80
2018-04-10T16:12:07.632Z,17.80
2018-04-10T16:14:36.552Z,17.50
2018-04-10T16:17:04.664Z,17.30
2018-04-10T16:19:33.632Z,17.10
2018-04-10T16:22:05.046Z,17.00
2018-04-10T16:24:33.072Z,16.80
2018-04-10T16:27:01.568Z,16.70
2018-04-10T16:29:32.259Z,16.50
2018-04-10T16:32:00.295Z,16.40
2018-04-10T16:34:29.231Z,16.40
2018-04-10T16:36:57.247Z,16.20
2018-04-10T16:39:29.890Z,16.10
2018-04-10T16:41:59.901Z,15.90
2018-04-10T16:44:33.119Z,15.70
2018-04-10T16:47:02.792Z,15.30
2018-04-10T16:49:33.762Z,15.30
2018-04-10T16:52:03.531Z,14.90
2018-04-10T16:54:33.455Z,14.90
2018-04-10T16:57:01.496Z,14.90
2018-04-10T16:59:31.036Z,14.90
2018-04-10T17:02:02.287Z,14.90
2018-04-10T17:04:30.319Z,15.10
2018-04-10T17:06:59.764Z,15.20
2018-04-10T17:09:33.439Z,15.30
2018-04-10T17:12:01.455Z,15.30
2018-04-10T17:14:32.159Z,15.20
2018-04-10T17:17:00.331Z,15.20
2018-04-10T17:19:28.391Z,15.10
2018-04-10T17:21:56.419Z,15.10
2018-04-10T17:24:24.436Z,15.10
2018-04-10T17:26:53.427Z,15.10
2018-04-10T17:29:23.207Z,15.00
2018-04-10T17:31:51.267Z,15.00
2018-04-10T17:34:19.287Z,15.00
2018-04-10T17:36:48.299Z,14.90
2018-04-10T17:39:18.096Z,14.80
2018-04-10T17:41:46.136Z,14.80
2018-04-10T17:44:15.371Z,14.80
2018-04-10T17:46:43.435Z,14.80
2018-04-10T17:49:13.359Z,14.80
2018-04-10T17:51:42.251Z,14.60
2018-04-10T17:54:11.075Z,14.50
2018-04-10T17:56:39.999Z,14.50
2018-04-10T17:59:08.035Z,14.40
2018-04-10T18:01:36.071Z,14.30
2018-04-10T18:04:09.542Z,14.30
2018-04-10T18:06:42.330Z,14.20
2018-04-10T18:09:15.003Z,14.20
2018-04-10T18:11:43.038Z,14.10
2018-04-10T18:14:12.062Z,14.10
2018-04-10T18:16:40.103Z,14.00
2018-04-10T18:19:09.387Z,14.00
2018-04-10T18:21:39.315Z,13.90
2018-04-10T18:24:08.247Z,13.90
2018-04-10T18:26:37.362Z,13.80
2018-04-10T18:29:11.370Z,13.80
2018-04-10T18:31:40.395Z,13.80
2018-04-10T18:34:12.271Z,13.90
2018-04-10T18:36:42.383Z,13.90
2018-04-10T18:39:17.411Z,13.90
2018-04-10T18:41:53.619Z,14.00
2018-04-10T18:44:26.782Z,14.00
2018-04-10T18:46:54.843Z,14.00
2018-04-10T18:49:27.403Z,14.20
2018-04-10T18:52:08.787Z,14.20
2018-04-10T18:54:37.731Z,14.20
2018-04-10T18:57:07.742Z,14.20
2018-04-10T18:59:45.950Z,14.00
2018-04-10T19:02:13.979Z,14.00
2018-04-10T19:04:47.583Z,13.90
2018-04-10T19:07:17.531Z,13.90
2018-04-10T19:09:45.539Z,13.70
2018-04-10T19:12:22.288Z,13.50
2018-04-10T19:15:02.195Z,13.50
2018-04-10T19:17:39.870Z,13.40
2018-04-10T19:20:07.898Z,13.30
2018-04-10T19:22:41.701Z,13.30
2018-04-10T19:25:11.722Z,13.30
2018-04-10T19:27:39.758Z,13.30
2018-04-10T19:30:09.723Z,13.20
2018-04-10T19:32:48.506Z,13.20
2018-04-10T19:35:17.582Z,13.20
2018-04-10T19:37:55.994Z,13.20
2018-04-10T19:40:36.373Z,13.20
2018-04-10T19:43:27.661Z,13.20
2018-04-10T19:45:55.753Z,13.20
2018-04-10T19:48:31.910Z,13.20
2018-04-10T19:50:59.941Z,13.20
2018-04-10T19:53:29.785Z,13.10
2018-04-10T19:55:57.854Z,13.10
2018-04-10T19:58:27.910Z,13.10
2018-04-10T20:00:57.930Z,13.00
2018-04-10T20:03:26.926Z,12.90
2018-04-10T20:05:54.986Z,12.80
2018-04-10T20:08:27.587Z,12.80
2018-04-10T20:11:05.777Z,12.70
2018-04-10T20:13:33.826Z,12.60
2018-04-10T20:16:03.882Z,12.60
2018-04-10T20:18:33.349Z,12.40
2018-04-10T20:21:03.405Z,12.40
2018-04-10T20:23:34.149Z,12.10
2018-04-10T20:26:07.741Z,11.70
2018-04-10T20:28:36.005Z,11.70
2018-04-10T20:31:12.125Z,10.80
2018-04-10T20:33:40.194Z,10.70
2018-04-10T20:36:13.194Z,10.40
2018-04-10T20:38:46.054Z,10.00
2018-04-10T20:41:16.786Z,9.40
2018-04-10T20:43:46.750Z,9.40
2018-04-10T20:46:31.426Z,9.20
2018-04-10T20:49:00.233Z,8.90
2018-04-10T20:51:28.606Z,8.90
2018-04-10T20:53:56.690Z,8.80
2018-04-10T20:56:30.637Z,8.80
2018-04-10T20:58:58.674Z,8.80
2018-04-10T21:01:26.673Z,8.80
2018-04-10T21:03:54.697Z,8.70
2018-04-10T21:06:27.734Z,8.70
2018-04-10T21:08:55.778Z,8.70
2018-04-10T21:11:25.930Z,8.60
2018-04-10T21:14:06.348Z,8.60
2018-04-10T21:16:37.111Z,8.70
2018-04-10T21:19:10.872Z,8.70
2018-04-10T21:21:39.843Z,8.70
2018-04-10T21:24:24.319Z,8.70
2018-04-10T21:27:02.155Z,8.70
2018-04-10T21:29:32.099Z,8.70
2018-04-10T21:32:02.107Z,8.70
2018-04-10T21:34:30.123Z,8.70
2018-04-10T21:37:00.095Z,8.70
2018-04-10T21:39:32.043Z,8.60
2018-04-10T21:42:10.447Z,8.50
2018-04-10T21:44:40.379Z,8.50
2018-04-10T21:47:24.778Z,8.40
2018-04-10T21:49:52.787Z,8.40
2018-04-10T21:52:28.535Z,8.30
2018-04-10T21:55:00.698Z,8.30
2018-04-10T21:57:29.735Z,8.20
2018-04-10T22:00:05.934Z,8.10
2018-04-10T22:05:30.614Z,8.10
2018-04-10T22:08:22.163Z,8.10
2018-04-10T22:10:58.946Z,8.10
2018-04-10T22:13:31.650Z,8.20
2018-04-10T22:15:59.664Z,8.20
2018-04-10T22:18:28.443Z,8.20
2018-04-10T22:21:04.451Z,8.20
2018-04-10T22:23:36.671Z,8.20
2018-04-10T22:26:07.406Z,8.20
2018-04-10T22:28:36.190Z,8.30
2018-04-10T22:31:18.403Z,8.30
2018-04-10T22:33:47.171Z,8.30
2018-04-10T22:36:15.199Z,8.20
2018-04-10T22:38:48.595Z,8.30
2018-04-10T22:41:24.222Z,8.20
2018-04-10T22:43:58.372Z,8.20
2018-04-10T22:49:21.555Z,8.20
2018-04-10T22:51:52.347Z,8.20
2018-04-10T22:54:31.295Z,8.20
2018-04-10T22:56:59.311Z,8.20
2018-04-10T22:59:28.352Z,8.10
2018-04-10T23:01:57.347Z,8.10
2018-04-10T23:04:25.388Z,8.10
2018-04-10T23:06:56.152Z,8.10
2018-04-10T23:09:32.617Z,8.10
2018-04-10T23:12:01.486Z,8.10
2018-04-10T23:14:31.421Z,8.10
2018-04-10T23:17:15.937Z,8.10
2018-04-10T23:19:56.508Z,8.10
2018-04-10T23:22:26.526Z,8.00
2018-04-10T23:24:57.616Z,8.00
2018-04-10T23:27:31.226Z,8.00
2018-04-10T23:30:01.662Z,7.90
2018-04-10T23:32:31.664Z,7.90
2018-04-10T23:35:04.973Z,7.90
2018-04-10T23:37:33.015Z,7.90
2018-04-10T23:40:09.545Z,8.00
2018-04-10T23:42:39.521Z,8.00
2018-04-10T23:45:07.554Z,8.00
2018-04-10T23:47:36.599Z,8.00
2018-04-10T23:50:21.710Z,8.00
2018-04-10T23:52:49.731Z,8.10
2018-04-10T23:55:17.762Z,8.10
2018-04-10T23:57:46.731Z,8.10
